Time;durP1;ratioP1;P1;durP2;ratioP2;P2;SDS_P1;SDS_P2;PMS_P1;PMS_P2;Temp;Humidity;BMP_temperature;BMP_pressure;BME280_temperature;BME280_humidity;BME280_pressure;Samples;Min_cycle;Max_cycle;Signal;HPM_P1;HPM_P2
2021/03/30 00:01:18;;;;;;;5.67;2.20;;;19.80;28.80;;;;;;8462691;28;20369;-59
2021/03/30 00:05:19;;;;;;;3.80;2.17;;;19.80;28.70;;;;;;8456328;28;20042;-59
2021/03/30 00:09:20;;;;;;;2.93;2.40;;;19.80;28.70;;;;;;8457779;28;20043;-59
2021/03/30 00:13:20;;;;;;;3.70;2.50;;;19.80;28.70;;;;;;8457645;28;20119;-59
2021/03/30 00:17:21;;;;;;;3.65;2.20;;;19.70;28.70;;;;;;8456860;28;20044;-59
2021/03/30 00:21:22;;;;;;;5.63;3.07;;;19.70;28.70;;;;;;8462055;28;20430;-58
2021/03/30 00:25:22;;;;;;;2.63;2.30;;;19.70;28.70;;;;;;8461680;28;20445;-57
2021/03/30 00:29:23;;;;;;;5.00;2.10;;;19.70;28.80;;;;;;8462195;28;20040;-58
2021/03/30 00:33:23;;;;;;;3.23;2.03;;;19.70;28.70;;;;;;8467540;27;20046;-59
2021/03/30 00:37:24;;;;;;;2.93;2.23;;;19.70;28.80;;;;;;8502386;27;20039;-59
2021/03/30 00:41:24;;;;;;;4.60;2.10;;;19.70;28.80;;;;;;8468706;27;20485;-59
2021/03/30 00:45:25;;;;;;;2.10;1.80;;;19.60;28.70;;;;;;8463767;28;20031;-58
2021/03/30 00:49:25;;;;;;;2.93;2.30;;;19.60;28.70;;;;;;8463333;28;20032;-58
2021/03/30 00:53:26;;;;;;;3.03;2.20;;;19.60;28.70;;;;;;8466071;28;20031;-60
2021/03/30 00:57:26;;;;;;;1.97;1.80;;;19.60;28.70;;;;;;8463200;28;20039;-57
2021/03/30 01:01:27;;;;;;;2.97;2.20;;;19.60;28.70;;;;;;8463328;28;20039;-58
2021/03/30 01:05:28;;;;;;;3.77;2.20;;;19.60;28.80;;;;;;8472136;27;20449;-58
2021/03/30 01:10:18;;;;;;;2.93;2.33;;;19.60;28.80;;;;;;8495163;27;20047;-59
2021/03/30 01:14:46;;;;;;;2.25;1.98;;;19.60;28.80;;;;;;8426978;28;20063;-59
2021/03/30 01:19:18;;;;;;;3.85;2.42;;;19.60;28.80;;;;;;8432762;28;20040;-59
2021/03/30 01:23:52;;;;;;;3.05;2.08;;;19.60;28.80;;;;;;8458087;28;20043;-59
2021/03/30 01:28:14;;;;;;;3.00;2.35;;;19.60;28.80;;;;;;8462057;28;20051;-59
2021/03/30 01:32:40;;;;;;;4.40;2.10;;;19.60;28.80;;;;;;8460396;28;20074;-59
2021/03/30 01:36:43;;;;;;;2.92;2.10;;;19.60;28.80;;;;;;8460834;28;20040;-59
2021/03/30 01:40:45;;;;;;;3.47;2.40;;;19.50;28.80;;;;;;8461868;28;20047;-59
2021/03/30 01:44:47;;;;;;;;;;;19.50;28.80;;;;;;8464836;28;20040;-59
2021/03/30 01:48:48;;;;;;;3.33;2.28;;;19.50;28.80;;;;;;8486997;27;19927;-59
2021/03/30 01:52:50;;;;;;;2.47;2.17;;;19.50;28.80;;;;;;8478798;27;20066;-59
2021/03/30 01:56:53;;;;;;;2.75;2.03;;;19.50;28.80;;;;;;8459993;27;20156;-59
2021/03/30 02:00:55;;;;;;;3.20;2.10;;;19.50;28.90;;;;;;8465798;28;20028;-59
2021/03/30 02:04:56;;;;;;;3.33;2.40;;;19.50;28.80;;;;;;8460912;28;20031;-59
2021/03/30 02:09:00;;;;;;;3.80;2.28;;;19.50;28.80;;;;;;8459440;27;20048;-59
2021/03/30 02:13:04;;;;;;;4.65;2.33;;;19.50;28.80;;;;;;8461036;28;20063;-59
2021/03/30 02:17:31;;;;;;;4.32;2.28;;;19.50;28.80;;;;;;8458832;28;20063;-59
2021/03/30 02:21:56;;;;;;;3.70;2.55;;;19.50;28.80;;;;;;8464915;28;20039;-59
2021/03/30 02:25:59;;;;;;;2.83;2.20;;;19.50;28.80;;;;;;8460017;28;20052;-59
2021/03/30 02:30:02;;;;;;;4.45;2.33;;;19.40;28.80;;;;;;8458202;28;20072;-59
2021/03/30 02:34:06;;;;;;;3.97;2.10;;;19.40;28.80;;;;;;8459933;28;20044;-59
2021/03/30 02:38:07;;;;;;;2.85;2.10;;;19.40;28.80;;;;;;8460902;27;20039;-58
2021/03/30 02:42:09;;;;;;;4.53;2.35;;;19.40;28.80;;;;;;8498559;27;20495;-59
2021/03/30 02:46:11;;;;;;;2.75;2.10;;;19.40;28.90;;;;;;8465483;27;20043;-59
2021/03/30 02:50:13;;;;;;;5.38;2.40;;;19.40;28.80;;;;;;8457758;28;20039;-58
2021/03/30 02:54:14;;;;;;;;;;;19.40;28.80;;;;;;8466812;27;20046;-59
2021/03/30 02:58:15;;;;;;;3.05;2.10;;;19.30;28.80;;;;;;8497751;27;19915;-59
2021/03/30 03:02:16;;;;;;;4.70;2.60;;;19.30;28.90;;;;;;8458934;27;20400;-59
2021/03/30 03:06:17;;;;;;;2.50;2.13;;;19.30;28.80;;;;;;8458991;28;20083;-59
2021/03/30 03:10:18;;;;;;;2.25;2.05;;;19.30;28.80;;;;;;8458712;28;20036;-59
2021/03/30 03:14:20;;;;;;;2.95;2.22;;;19.30;28.80;;;;;;8457519;28;20119;-59
2021/03/30 03:18:21;;;;;;;3.42;2.53;;;19.30;28.90;;;;;;8463164;28;20032;-59
2021/03/30 03:22:23;;;;;;;3.33;2.53;;;19.30;28.90;;;;;;8458638;28;20031;-59
2021/03/30 03:26:24;;;;;;;4.28;2.35;;;19.30;28.90;;;;;;8456870;28;20055;-59
2021/03/30 03:30:25;;;;;;;4.10;2.63;;;19.30;28.90;;;;;;8458371;28;20080;-59
2021/03/30 03:34:26;;;;;;;4.55;2.35;;;19.30;28.90;;;;;;8462654;28;20269;-57
2021/03/30 03:38:26;;;;;;;2.80;2.37;;;19.40;28.90;;;;;;8456561;28;20431;-59
2021/03/30 03:42:27;;;;;;;4.47;2.03;;;19.40;28.90;;;;;;8458838;28;20039;-59
2021/03/30 03:46:27;;;;;;;4.17;2.53;;;19.40;28.90;;;;;;8458016;28;20036;-59
2021/03/30 03:50:28;;;;;;;3.97;2.43;;;19.40;28.90;;;;;;8460837;28;20039;-59
2021/03/30 03:54:30;;;;;;;5.17;2.37;;;19.50;28.90;;;;;;8458709;28;20042;-59
2021/03/30 03:58:33;;;;;;;;;;;19.40;28.80;;;;;;8459871;28;20063;-59
2021/03/30 04:03:01;;;;;;;4.97;2.50;;;19.50;28.90;;;;;;8463700;27;19911;-59
2021/03/30 04:07:03;;;;;;;4.45;2.08;;;19.40;28.80;;;;;;8456639;27;20036;-57
2021/03/30 04:11:05;;;;;;;2.55;1.77;;;19.40;28.80;;;;;;8467380;28;20484;-59
2021/03/30 04:15:07;;;;;;;2.35;2.10;;;19.40;28.90;;;;;;8464510;28;20051;-59
2021/03/30 04:19:10;;;;;;;3.15;2.20;;;19.40;28.80;;;;;;8464154;28;20036;-59
2021/03/30 04:23:12;;;;;;;2.70;2.20;;;19.40;28.80;;;;;;8462158;28;20043;-59
2021/03/30 04:27:14;;;;;;;3.22;2.20;;;19.40;28.80;;;;;;8464370;28;22163;-59
2021/03/30 04:31:15;;;;;;;3.05;1.90;;;19.40;28.90;;;;;;8468520;28;20055;-59
2021/03/30 04:35:16;;;;;;;3.08;2.22;;;19.40;28.80;;;;;;8488551;27;20039;-59
2021/03/30 04:39:17;;;;;;;3.28;2.30;;;19.40;28.80;;;;;;8480681;27;20043;-59
2021/03/30 04:43:18;;;;;;;3.27;2.27;;;19.40;28.80;;;;;;8463605;28;20031;-59
2021/03/30 04:47:21;;;;;;;4.60;2.17;;;19.30;28.80;;;;;;8466327;28;20134;-59
2021/03/30 04:51:21;;;;;;;4.45;2.38;;;19.30;28.80;;;;;;8464101;28;20035;-59
2021/03/30 04:55:22;;;;;;;2.90;2.17;;;19.30;28.80;;;;;;8463384;28;20031;-57
2021/03/30 04:59:22;;;;;;;5.50;2.67;;;19.30;28.90;;;;;;8461975;27;20028;-59
2021/03/30 05:03:23;;;;;;;3.10;2.40;;;19.30;28.90;;;;;;8464243;28;20039;-59
2021/03/30 05:07:23;;;;;;;4.23;2.63;;;19.30;28.90;;;;;;8466161;28;20085;-59
2021/03/30 05:11:24;;;;;;;3.10;2.50;;;19.30;28.90;;;;;;8460684;28;20039;-58
2021/03/30 05:15:25;;;;;;;3.33;2.00;;;19.20;28.90;;;;;;8462589;28;20484;-59
2021/03/30 05:19:25;;;;;;;3.33;2.10;;;19.20;28.90;;;;;;8462722;28;20403;-59
2021/03/30 05:23:26;;;;;;;2.60;2.03;;;19.20;28.90;;;;;;8465209;28;20036;-59
2021/03/30 05:27:28;;;;;;;3.22;2.25;;;19.20;28.90;;;;;;8462106;28;20416;-59
2021/03/30 05:31:28;;;;;;;5.38;2.60;;;19.20;28.90;;;;;;8462513;28;20038;-59
2021/03/30 05:35:29;;;;;;;2.23;2.03;;;19.10;28.90;;;;;;8460164;28;20408;-59
2021/03/30 05:39:31;;;;;;;4.40;2.10;;;19.10;28.90;;;;;;8466403;28;20509;-59
2021/03/30 05:43:32;;;;;;;3.38;2.20;;;19.10;28.90;;;;;;8461857;28;20059;-59
2021/03/30 05:47:33;;;;;;;2.88;2.25;;;19.10;28.90;;;;;;8459821;28;20501;-59
2021/03/30 05:51:38;;;;;;;3.63;2.35;;;19.10;28.90;;;;;;8461912;27;20028;-59
2021/03/30 05:55:40;;;;;;;3.03;2.20;;;19.10;28.90;;;;;;8460743;28;20082;-58
2021/03/30 05:59:43;;;;;;;4.22;2.35;;;19.10;28.90;;;;;;8463607;28;20035;-58
2021/03/30 06:03:44;;;;;;;2.45;1.95;;;19.00;28.90;;;;;;8460834;28;20043;-58
2021/03/30 06:07:45;;;;;;;4.65;2.33;;;19.00;28.90;;;;;;8460779;28;20044;-59
2021/03/30 06:11:46;;;;;;;3.38;2.60;;;19.00;28.90;;;;;;8459022;28;20027;-59
2021/03/30 06:15:47;;;;;;;4.40;2.87;;;19.00;29.00;;;;;;8465211;28;20039;-60
2021/03/30 06:19:53;;;;;;;3.83;2.20;;;19.00;28.90;;;;;;8460725;28;20039;-59
2021/03/30 06:23:55;;;;;;;2.88;2.45;;;19.10;28.90;;;;;;8458029;28;20036;-59
2021/03/30 06:28:14;;;;;;;2.42;1.95;;;19.30;28.70;;;;;;8460137;28;20052;-59
2021/03/30 06:32:17;;;;;;;2.42;2.15;;;19.50;28.50;;;;;;8457831;28;20032;-59
2021/03/30 06:36:32;;;;;;;3.20;2.33;;;19.70;28.30;;;;;;8463893;28;20168;-58
2021/03/30 06:40:36;;;;;;;3.00;1.98;;;19.80;28.10;;;;;;8459844;28;20042;-59
2021/03/30 06:44:38;;;;;;;2.70;2.28;;;20.00;27.90;;;;;;8477836;27;20031;-59
2021/03/30 06:48:39;;;;;;;3.42;2.20;;;20.00;27.80;;;;;;8481854;27;20059;-59
2021/03/30 06:52:39;;;;;;;4.60;2.83;;;20.10;27.80;;;;;;8459641;28;20055;-59
2021/03/30 06:56:52;;;;;;;3.33;2.33;;;20.10;27.90;;;;;;8462193;28;20038;-59
2021/03/30 07:00:53;;;;;;;3.45;2.45;;;20.00;28.00;;;;;;8459079;28;20283;-59
2021/03/30 07:04:54;;;;;;;3.67;2.27;;;20.00;28.10;;;;;;8458948;28;20065;-59
2021/03/30 07:08:55;;;;;;;3.00;2.20;;;19.90;28.10;;;;;;8457231;28;20035;-59
2021/03/30 07:12:57;;;;;;;4.07;2.10;;;19.90;28.10;;;;;;8445183;28;20123;-59
2021/03/30 07:16:57;;;;;;;4.38;2.55;;;19.80;28.20;;;;;;8458368;28;20031;-59
2021/03/30 07:21:02;;;;;;;3.47;2.83;;;19.80;28.30;;;;;;8456658;28;20020;-59
2021/03/30 07:25:05;;;;;;;5.93;2.70;;;19.70;28.30;;;;;;8458962;28;20027;-58
2021/03/30 07:29:10;;;;;;;4.57;2.95;;;19.70;28.40;;;;;;8455883;28;20090;-59
2021/03/30 07:33:23;;;;;;;4.05;2.58;;;19.70;28.40;;;;;;8461799;28;20032;-60
2021/03/30 07:37:49;;;;;;;2.60;2.17;;;19.60;28.40;;;;;;8485573;27;20039;-60
2021/03/30 07:41:49;;;;;;;3.53;2.58;;;19.70;28.40;;;;;;8469127;27;20051;-60
2021/03/30 07:45:53;;;;;;;4.65;2.45;;;19.70;28.40;;;;;;8458037;28;20430;-60
2021/03/30 07:49:55;;;;;;;3.53;2.50;;;19.60;28.40;;;;;;8457877;28;20052;-60
2021/03/30 07:54:08;;;;;;;3.08;2.65;;;19.70;28.40;;;;;;8460603;28;20495;-60
2021/03/30 07:58:11;;;;;;;3.83;2.50;;;19.70;28.40;;;;;;8457838;28;20024;-59
2021/03/30 08:02:21;;;;;;;4.22;2.90;;;19.60;28.40;;;;;;8455897;28;20039;-60
2021/03/30 08:06:34;;;;;;;4.70;2.60;;;19.70;28.50;;;;;;8457742;28;20048;-58
2021/03/30 08:10:44;;;;;;;4.60;2.72;;;19.60;28.50;;;;;;8459006;28;20031;-59
2021/03/30 08:14:45;;;;;;;3.92;2.50;;;19.60;28.60;;;;;;8427080;28;20059;-59
2021/03/30 08:18:46;;;;;;;5.47;3.20;;;19.50;28.60;;;;;;8449862;28;20038;-59
2021/03/30 08:23:11;;;;;;;4.22;2.78;;;19.50;28.60;;;;;;8457607;28;20040;-58
2021/03/30 08:27:36;;;;;;;4.22;2.70;;;19.50;28.90;;;;;;8455946;28;20078;-59
2021/03/30 08:31:44;;;;;;;4.95;2.85;;;19.50;28.70;;;;;;8439079;28;20448;-59
2021/03/30 08:35:44;;;;;;;3.33;2.80;;;19.50;28.70;;;;;;8459887;28;20388;-59
2021/03/30 08:39:45;;;;;;;4.40;2.80;;;19.50;28.70;;;;;;8456655;28;20101;-59
2021/03/30 08:44:09;;;;;;;4.00;2.73;;;19.50;28.80;;;;;;8457419;28;20027;-59
2021/03/30 08:48:11;;;;;;;6.38;3.13;;;19.50;28.80;;;;;;8461927;28;20140;-59
2021/03/30 08:52:12;;;;;;;;;;;19.50;28.80;;;;;;8464856;28;20557;-59
2021/03/30 08:56:14;;;;;;;4.95;2.90;;;19.50;28.80;;;;;;8465086;28;20411;-58
2021/03/30 09:00:15;;;;;;;6.78;3.05;;;19.50;28.80;;;;;;8463471;28;20052;-59
2021/03/30 09:04:16;;;;;;;7.45;3.33;;;19.50;28.90;;;;;;8463245;28;20395;-59
2021/03/30 09:08:34;;;;;;;4.77;3.00;;;19.50;28.90;;;;;;8461380;27;20040;-59
2021/03/30 09:12:35;;;;;;;6.80;3.20;;;19.50;28.90;;;;;;8467556;28;20096;-59
2021/03/30 09:16:37;;;;;;;4.67;2.77;;;19.50;28.90;;;;;;8462810;28;20031;-59
2021/03/30 09:20:38;;;;;;;4.80;2.85;;;19.60;28.90;;;;;;8460721;28;20042;-59
2021/03/30 09:28:52;;;;;;;4.43;2.65;;;19.70;28.90;;;;;;8462621;27;20400;-59
2021/03/30 09:32:55;;;;;;;3.73;2.50;;;19.70;28.80;;;;;;8464497;28;20031;-60
2021/03/30 09:36:58;;;;;;;4.45;3.13;;;19.80;28.80;;;;;;8462068;28;20031;-60
2021/03/30 09:40:59;;;;;;;4.93;2.83;;;19.80;28.80;;;;;;8479051;27;20065;-60
2021/03/30 09:44:59;;;;;;;5.17;2.70;;;19.80;28.80;;;;;;8487072;27;20038;-60
2021/03/30 09:49:01;;;;;;;3.85;2.70;;;19.90;28.80;;;;;;8466222;28;20059;-60
2021/03/30 09:53:07;;;;;;;5.35;2.97;;;19.90;28.80;;;;;;8461561;28;20400;-60
2021/03/30 09:57:16;;;;;;;3.95;2.60;;;19.90;28.80;;;;;;8459530;27;20035;-60
2021/03/30 10:01:17;;;;;;;6.45;2.88;;;19.90;28.80;;;;;;8461115;28;20031;-60
2021/03/30 10:05:18;;;;;;;4.93;2.90;;;20.00;28.90;;;;;;8459606;28;20104;-60
2021/03/30 10:09:18;;;;;;;4.18;3.03;;;19.90;28.80;;;;;;8465228;28;20040;-60
2021/03/30 10:13:34;;;;;;;4.40;2.80;;;20.00;28.90;;;;;;8461957;27;20043;-60
2021/03/30 10:17:35;;;;;;;4.65;3.13;;;20.00;28.80;;;;;;8458880;28;20140;-60
2021/03/30 10:21:39;;;;;;;4.07;2.70;;;20.00;28.80;;;;;;8460986;28;20366;-60
2021/03/30 10:25:40;;;;;;;3.88;2.88;;;20.00;28.80;;;;;;8464766;28;20031;-59
2021/03/30 10:29:41;;;;;;;4.87;3.20;;;20.00;28.80;;;;;;8458691;28;20168;-59
2021/03/30 10:33:47;;;;;;;3.75;2.40;;;20.00;28.80;;;;;;8460330;28;20061;-59
2021/03/30 10:37:48;;;;;;;5.70;3.25;;;20.00;28.80;;;;;;8441970;28;20040;-60
2021/03/30 10:41:49;;;;;;;5.37;2.77;;;20.10;28.80;;;;;;8458256;28;20084;-59
2021/03/30 10:45:50;;;;;;;5.30;3.40;;;20.10;28.80;;;;;;8464475;28;20076;-59
2021/03/30 10:49:54;;;;;;;5.82;3.67;;;20.10;28.80;;;;;;8459454;28;20089;-59
2021/03/30 10:53:54;;;;;;;4.55;3.20;;;20.10;28.80;;;;;;8457681;28;20047;-59
2021/03/30 10:57:55;;;;;;;6.40;3.23;;;20.10;28.80;;;;;;8459637;28;20023;-59
2021/03/30 11:01:56;;;;;;;5.37;3.30;;;20.10;28.80;;;;;;8463950;28;20039;-59
2021/03/30 11:05:56;;;;;;;4.33;3.00;;;20.10;28.80;;;;;;8457400;28;20509;-59
2021/03/30 11:09:57;;;;;;;3.33;2.43;;;20.10;28.80;;;;;;8458768;28;20034;-59
2021/03/30 11:13:57;;;;;;;4.57;3.13;;;20.10;28.80;;;;;;8459130;28;20051;-59
2021/03/30 11:17:59;;;;;;;6.83;3.70;;;20.10;28.80;;;;;;8457332;28;20114;-59
2021/03/30 11:21:59;;;;;;;5.75;2.95;;;20.10;28.80;;;;;;8463447;28;20107;-59
2021/03/30 11:26:00;;;;;;;5.63;2.97;;;20.20;28.80;;;;;;8458595;28;20039;-59
2021/03/30 11:30:17;;;;;;;5.67;3.30;;;20.20;28.80;;;;;;8457132;27;20031;-59
2021/03/30 11:38:37;;;;;;;4.35;2.95;;;20.20;28.70;;;;;;8458852;28;20437;-59
2021/03/30 11:42:37;;;;;;;6.33;3.50;;;20.20;28.80;;;;;;8461128;28;20028;-59
2021/03/30 11:46:38;;;;;;;5.20;3.37;;;20.20;28.80;;;;;;8458879;28;20408;-59
2021/03/30 11:50:39;;;;;;;4.30;3.00;;;20.20;28.80;;;;;;8457027;28;20028;-59
2021/03/30 11:54:41;;;;;;;5.05;3.25;;;20.30;28.80;;;;;;8458209;28;20023;-59
2021/03/30 11:58:42;;;;;;;3.95;2.97;;;20.30;28.80;;;;;;8462602;28;20550;-58
2021/03/30 12:02:44;;;;;;;3.90;2.70;;;20.30;28.70;;;;;;8456213;28;20065;-58
2021/03/30 12:06:45;;;;;;;6.93;3.80;;;20.30;28.80;;;;;;8458196;28;20063;-58
2021/03/30 12:10:45;;;;;;;5.43;3.73;;;20.30;28.70;;;;;;8457206;28;20453;-57
2021/03/30 12:14:46;;;;;;;5.63;2.90;;;20.30;28.70;;;;;;8442380;28;20400;-57
2021/03/30 12:18:47;;;;;;;4.93;3.42;;;20.30;28.70;;;;;;8457896;28;20073;-58
2021/03/30 12:22:47;;;;;;;4.80;2.97;;;20.30;28.70;;;;;;8464357;28;20039;-58
2021/03/30 12:26:48;;;;;;;6.80;3.50;;;20.30;28.70;;;;;;8462829;28;20469;-58
2021/03/30 12:30:49;;;;;;;5.32;2.83;;;20.30;28.70;;;;;;8463870;28;20188;-58
2021/03/30 12:34:49;;;;;;;4.80;3.07;;;20.40;28.70;;;;;;8468766;28;20039;-58
2021/03/30 12:38:50;;;;;;;5.80;3.50;;;20.40;28.70;;;;;;8462095;28;20036;-58
2021/03/30 12:42:51;;;;;;;4.50;3.00;;;20.40;28.70;;;;;;8463829;28;20038;-57
2021/03/30 12:46:53;;;;;;;5.15;3.63;;;20.40;28.80;;;;;;8464338;27;20145;-58
2021/03/30 12:50:53;;;;;;;;;;;20.40;28.70;;;;;;8466928;28;20067;-58
2021/03/30 12:55:03;;;;;;;4.43;3.20;;;20.40;28.80;;;;;;8463669;28;19918;-59
2021/03/30 12:59:03;;;;;;;4.70;3.17;;;20.40;28.80;;;;;;8462245;27;20027;-57
2021/03/30 13:03:04;;;;;;;4.13;3.20;;;20.40;28.70;;;;;;8463193;28;20041;-59
2021/03/30 13:07:05;;;;;;;4.93;3.17;;;20.50;28.70;;;;;;8464880;28;20393;-58
2021/03/30 13:11:06;;;;;;;6.47;3.30;;;20.50;28.80;;;;;;8498523;27;20034;-58
2021/03/30 13:15:07;;;;;;;4.15;3.10;;;20.50;28.70;;;;;;8472108;27;20032;-58
2021/03/30 13:19:07;;;;;;;4.55;3.10;;;20.50;28.70;;;;;;8462829;28;20475;-59
2021/03/30 13:23:08;;;;;;;4.77;2.87;;;20.50;28.70;;;;;;8460816;28;20172;-58
2021/03/30 13:27:10;;;;;;;4.93;3.08;;;20.50;28.70;;;;;;8448899;28;20040;-58
2021/03/30 13:31:11;;;;;;;4.38;2.97;;;20.50;28.70;;;;;;8461438;28;20070;-58
2021/03/30 13:35:12;;;;;;;4.90;3.10;;;20.50;28.70;;;;;;8460525;28;20059;-58
2021/03/30 13:39:12;;;;;;;4.67;3.00;;;20.50;28.70;;;;;;8462285;28;20066;-58
2021/03/30 13:43:13;;;;;;;4.13;2.80;;;20.50;28.70;;;;;;8466177;28;20392;-58
2021/03/30 13:47:13;;;;;;;3.93;2.70;;;20.50;28.70;;;;;;8459942;28;20044;-58
2021/03/30 13:51:14;;;;;;;4.53;3.00;;;20.60;28.70;;;;;;8461836;28;20035;-59
2021/03/30 13:55:15;;;;;;;3.83;2.80;;;20.60;29.10;;;;;;8461342;28;20077;-58
2021/03/30 13:59:15;;;;;;;5.35;3.15;;;20.60;28.70;;;;;;8459397;28;20422;-59
2021/03/30 14:03:16;;;;;;;4.93;3.20;;;20.60;28.70;;;;;;8466119;28;20443;-59
2021/03/30 14:07:17;;;;;;;6.17;3.00;;;20.50;28.70;;;;;;8460886;28;20055;-59
2021/03/30 14:11:19;;;;;;;4.93;2.93;;;20.60;28.70;;;;;;8459307;28;20059;-59
2021/03/30 14:19:50;;;;;;;4.30;2.85;;;20.60;28.80;;;;;;8441203;28;20161;-57
2021/03/30 14:23:56;;;;;;;4.88;3.03;;;20.60;28.70;;;;;;8461201;28;20032;-58
2021/03/30 14:27:56;;;;;;;4.38;2.88;;;20.60;28.70;;;;;;8460243;28;20076;-58
2021/03/30 14:31:59;;;;;;;4.27;2.57;;;20.60;28.70;;;;;;8460843;27;20036;-58
2021/03/30 14:35:59;;;;;;;4.03;2.97;;;20.60;28.70;;;;;;8458083;28;20032;-58
2021/03/30 14:40:11;;;;;;;7.07;3.67;;;20.60;28.70;;;;;;8464610;28;20032;-58
2021/03/30 14:56:52;;;;;;;3.88;3.08;;;20.60;28.70;;;;;;8487780;27;20032;-58
2021/03/30 15:01:16;;;;;;;4.97;3.03;;;20.60;28.70;;;;;;8463719;28;20480;-58
2021/03/30 15:05:17;;;;;;;4.15;2.90;;;20.60;28.60;;;;;;8457375;28;20047;-58
2021/03/30 15:09:17;;;;;;;4.73;2.97;;;20.60;28.60;;;;;;8459166;28;20069;-58
2021/03/30 15:13:18;;;;;;;5.10;2.93;;;20.60;28.60;;;;;;8459150;28;20043;-58
2021/03/30 15:17:18;;;;;;;5.90;3.07;;;20.60;28.70;;;;;;8457216;28;20056;-59
2021/03/30 15:21:19;;;;;;;3.17;2.40;;;20.60;28.70;;;;;;8463841;28;20032;-58
2021/03/30 15:25:21;;;;;;;5.43;3.27;;;20.60;28.70;;;;;;8458833;27;20040;-59
2021/03/30 15:29:21;;;;;;;;;;;20.60;28.60;;;;;;8457028;28;20044;-58
2021/03/30 15:33:22;;;;;;;5.07;2.90;;;20.60;28.50;;;;;;8458710;28;20034;-58
2021/03/30 15:37:26;;;;;;;3.57;2.50;;;20.60;28.50;;;;;;8462669;28;20489;-58
2021/03/30 15:41:27;;;;;;;3.92;2.80;;;20.60;28.60;;;;;;8456898;28;20046;-58
2021/03/30 15:49:34;;;;;;;4.43;2.72;;;20.70;28.50;;;;;;8480661;27;20051;-58
2021/03/30 15:53:34;;;;;;;3.47;2.60;;;20.60;28.50;;;;;;8455996;28;20115;-58
2021/03/30 15:57:36;;;;;;;5.90;3.00;;;20.60;28.60;;;;;;8462473;28;20043;-58
2021/03/30 16:01:37;;;;;;;5.85;2.97;;;20.60;28.60;;;;;;8457804;28;20039;-58
2021/03/30 16:05:37;;;;;;;4.07;2.50;;;20.60;28.60;;;;;;8456161;28;20432;-58
2021/03/30 16:09:39;;;;;;;3.83;3.00;;;20.60;28.60;;;;;;8457421;28;20032;-58
2021/03/30 16:13:39;;;;;;;4.60;3.08;;;20.70;28.60;;;;;;8462257;28;20400;-59
2021/03/30 16:17:40;;;;;;;3.63;2.57;;;20.70;28.70;;;;;;8455638;28;20028;-59
2021/03/30 16:21:40;;;;;;;4.07;2.77;;;20.70;28.70;;;;;;8457478;28;20046;-59
2021/03/30 16:25:41;;;;;;;4.73;2.73;;;20.70;28.70;;;;;;8458072;28;20507;-58
2021/03/30 16:29:41;;;;;;;5.73;2.90;;;20.70;28.80;;;;;;8460245;28;20508;-58
2021/03/30 16:33:42;;;;;;;4.27;2.87;;;20.60;28.60;;;;;;8457328;28;20363;-58
2021/03/30 16:37:42;;;;;;;4.10;2.47;;;20.70;28.80;;;;;;8456950;28;20358;-58
2021/03/30 16:41:43;;;;;;;6.27;3.23;;;20.70;28.70;;;;;;8455472;28;20039;-58
2021/03/30 16:45:44;;;;;;;4.60;3.10;;;20.60;28.60;;;;;;8457805;28;20488;-59
2021/03/30 16:49:46;;;;;;;3.90;2.73;;;20.70;28.80;;;;;;8461572;28;20043;-59
2021/03/30 16:53:47;;;;;;;4.88;3.25;;;20.70;28.80;;;;;;8455241;28;20031;-59
2021/03/30 16:57:48;;;;;;;4.60;3.23;;;20.60;28.70;;;;;;8457069;28;20618;-58
2021/03/30 17:01:48;;;;;;;4.50;3.17;;;20.70;28.60;;;;;;8462478;28;20032;-59
2021/03/30 17:05:49;;;;;;;4.70;3.20;;;20.70;28.70;;;;;;8473323;28;20127;-58
2021/03/30 17:09:49;;;;;;;5.63;3.07;;;20.60;28.70;;;;;;8462489;28;20431;-58
2021/03/30 17:13:50;;;;;;;6.37;3.30;;;20.70;28.40;;;;;;8482696;27;20055;-58
2021/03/30 17:17:50;;;;;;;5.20;3.20;;;20.70;28.50;;;;;;8472452;27;20040;-58
2021/03/30 17:21:51;;;;;;;4.73;2.60;;;20.60;28.40;;;;;;8464316;28;20092;-58
2021/03/30 17:25:51;;;;;;;4.93;3.40;;;20.60;28.40;;;;;;8461465;28;20481;-58
2021/03/30 17:29:52;;;;;;;5.00;3.57;;;20.60;28.60;;;;;;8483511;27;20070;-58
2021/03/30 17:33:53;;;;;;;4.93;3.73;;;20.60;28.70;;;;;;8481915;27;20123;-57
2021/03/30 17:37:54;;;;;;;5.65;3.88;;;20.60;28.80;;;;;;8461895;28;20452;-58
2021/03/30 17:41:55;;;;;;;6.50;3.85;;;20.60;28.80;;;;;;8464525;28;20024;-58
2021/03/30 17:45:55;;;;;;;6.10;3.45;;;20.60;28.80;;;;;;8461376;28;20053;-57
2021/03/30 17:49:56;;;;;;;5.87;3.40;;;20.60;29.00;;;;;;8461265;28;20134;-57
2021/03/30 17:53:57;;;;;;;8.47;3.90;;;20.60;29.00;;;;;;8459553;28;20485;-57
2021/03/30 17:57:57;;;;;;;6.53;3.80;;;20.60;29.10;;;;;;8465680;28;20028;-57
2021/03/30 18:01:58;;;;;;;5.60;3.83;;;20.60;29.10;;;;;;8461131;28;20072;-56
2021/03/30 18:05:58;;;;;;;5.93;3.87;;;20.60;29.00;;;;;;8479418;27;20027;-58
2021/03/30 18:10:02;;;;;;;6.03;4.03;;;20.60;29.00;;;;;;8462585;27;20032;-58
2021/03/30 18:14:02;;;;;;;6.30;3.83;;;20.60;29.00;;;;;;8460563;27;20043;-54
2021/03/30 18:18:03;;;;;;;7.27;4.30;;;20.60;29.00;;;;;;8463467;28;20062;-59
2021/03/30 18:22:05;;;;;;;5.63;3.43;;;20.50;28.90;;;;;;8460499;28;20039;-58
2021/03/30 18:26:06;;;;;;;6.65;3.60;;;20.50;28.90;;;;;;8458407;28;20058;-58
2021/03/30 18:30:09;;;;;;;4.53;3.20;;;20.60;28.90;;;;;;8460248;28;20032;-60
2021/03/30 18:34:10;;;;;;;7.50;4.95;;;20.50;28.90;;;;;;8464710;28;20035;-59
2021/03/30 18:38:10;;;;;;;5.23;4.00;;;20.60;28.90;;;;;;8458206;28;20039;-59
2021/03/30 18:42:11;;;;;;;5.20;3.63;;;20.50;28.90;;;;;;8460142;28;20622;-59
2021/03/30 18:46:11;;;;;;;4.20;3.40;;;20.50;28.90;;;;;;8459805;28;20042;-59
2021/03/30 18:50:15;;;;;;;4.50;3.53;;;20.50;28.90;;;;;;8462440;28;20034;-58
2021/03/30 18:54:20;;;;;;;5.43;3.67;;;20.50;28.90;;;;;;8476732;27;20362;-59
2021/03/30 18:58:26;;;;;;;7.00;3.78;;;20.50;28.90;;;;;;8468779;27;20035;-59
2021/03/30 19:02:27;;;;;;;4.65;3.70;;;20.50;28.90;;;;;;8472126;27;20503;-59
2021/03/30 19:06:27;;;;;;;5.37;3.87;;;20.50;28.90;;;;;;8469570;27;20040;-59
2021/03/30 19:10:28;;;;;;;5.80;3.43;;;20.50;28.90;;;;;;8463620;28;20587;-59
2021/03/30 19:14:29;;;;;;;5.57;3.63;;;20.50;29.00;;;;;;8485284;27;20042;-59
2021/03/30 19:18:30;;;;;;;3.80;2.80;;;20.50;28.90;;;;;;8492399;27;20035;-59
2021/03/30 19:22:30;;;;;;;4.07;2.85;;;20.50;29.00;;;;;;8483705;27;20031;-59
2021/03/30 19:26:31;;;;;;;3.60;2.73;;;20.50;29.00;;;;;;8461399;28;20419;-58
2021/03/30 19:30:54;;;;;;;5.37;3.40;;;20.50;29.00;;;;;;8458668;28;20165;-58
2021/03/30 19:35:39;;;;;;;5.68;3.50;;;20.50;29.00;;;;;;8458400;28;20115;-58
2021/03/30 19:39:19;;;;;;;4.70;3.45;;;20.50;29.00;;;;;;8448798;28;20101;-59
2021/03/30 19:43:19;;;;;;;5.63;3.70;;;20.50;29.00;;;;;;8458276;28;20120;-59
2021/03/30 19:47:20;;;;;;;5.57;3.80;;;20.50;29.00;;;;;;8460650;28;20412;-59
2021/03/30 19:51:25;;;;;;;5.47;3.50;;;20.50;29.00;;;;;;8458213;28;20036;-59
2021/03/30 19:55:31;;;;;;;4.43;3.15;;;20.40;29.00;;;;;;8457967;28;20032;-60
2021/03/30 19:59:31;;;;;;;6.25;3.58;;;20.50;29.00;;;;;;8469744;28;20031;-59
2021/03/30 20:03:32;;;;;;;4.93;2.87;;;20.40;29.00;;;;;;8490835;28;20379;-59
2021/03/30 20:07:32;;;;;;;5.03;3.13;;;20.40;29.00;;;;;;8495994;28;20047;-59
2021/03/30 20:11:33;;;;;;;3.93;2.93;;;20.40;29.00;;;;;;8461757;28;20046;-60
2021/03/30 20:15:34;;;;;;;5.07;3.43;;;20.40;29.00;;;;;;8458448;28;20492;-61
2021/03/30 20:19:37;;;;;;;4.53;2.85;;;20.40;29.00;;;;;;8457756;28;20583;-60
2021/03/30 20:23:38;;;;;;;8.32;3.33;;;20.40;29.00;;;;;;8460177;28;20434;-59
2021/03/30 20:27:39;;;;;;;4.97;3.23;;;20.40;29.00;;;;;;8457395;28;20044;-59
2021/03/30 20:31:39;;;;;;;3.87;2.67;;;20.40;29.00;;;;;;8457472;28;20028;-60
2021/03/30 20:35:40;;;;;;;3.90;3.30;;;20.30;28.90;;;;;;8455609;28;20621;-59
2021/03/30 20:39:40;;;;;;;5.10;2.90;;;20.40;29.00;;;;;;8457271;28;20039;-60
2021/03/30 20:43:41;;;;;;;5.07;3.20;;;20.40;28.90;;;;;;8468289;28;20434;-60
2021/03/30 20:47:42;;;;;;;4.83;2.93;;;20.40;29.40;;;;;;8462416;28;20118;-60
2021/03/30 20:51:43;;;;;;;4.93;3.20;;;20.40;28.90;;;;;;8464142;28;20092;-60
2021/03/30 20:55:43;;;;;;;3.70;3.10;;;20.50;28.90;;;;;;8463395;28;20270;-58
2021/03/30 20:59:44;;;;;;;3.47;2.70;;;20.50;28.90;;;;;;8466038;28;20277;-59
2021/03/30 21:03:44;;;;;;;5.28;3.30;;;20.50;28.90;;;;;;8462985;28;20051;-61
2021/03/30 21:07:46;;;;;;;4.73;3.27;;;20.50;28.90;;;;;;8463010;28;20393;-60
2021/03/30 21:11:46;;;;;;;5.70;3.28;;;20.50;28.90;;;;;;8461219;28;20473;-60
2021/03/30 21:15:47;;;;;;;5.20;3.17;;;20.50;28.90;;;;;;8467128;28;20082;-59
2021/03/30 21:19:47;;;;;;;6.37;3.63;;;20.50;28.90;;;;;;8462792;28;20027;-59
2021/03/30 21:23:48;;;;;;;4.70;3.27;;;20.50;28.90;;;;;;8460882;28;20122;-60
2021/03/30 21:27:49;;;;;;;4.72;3.42;;;20.50;28.90;;;;;;8462881;28;20035;-60
2021/03/30 21:31:49;;;;;;;4.10;2.80;;;20.50;28.90;;;;;;8462224;28;20046;-60
2021/03/30 21:35:50;;;;;;;3.40;2.53;;;20.50;28.90;;;;;;8465224;28;20023;-59